createdAt,value
2019-01-21T00:04:00.545Z,97920.44
2019-01-21T00:09:04.860Z,97917.84
2019-01-21T00:14:08.064Z,97925.01
2019-01-21T00:19:11.373Z,97928.06
2019-01-21T00:24:14.567Z,97921.20
2019-01-21T00:29:17.754Z,97927.63
2019-01-21T00:34:21.002Z,97933.97
2019-01-21T00:39:24.193Z,97926.31
2019-01-21T00:44:27.509Z,97931.05
2019-01-21T00:49:30.711Z,97931.92
2019-01-21T00:54:34.925Z,97937.44
2019-01-21T00:59:38.123Z,97940.42
2019-01-21T01:04:41.327Z,97942.14
2019-01-21T01:09:44.553Z,97949.78
2019-01-21T01:14:47.783Z,97941.66
2019-01-21T01:19:51.065Z,97942.33
2019-01-21T01:24:54.270Z,97952.11
2019-01-21T01:29:57.460Z,97939.38
2019-01-21T01:35:00.686Z,97936.88
2019-01-21T01:40:04.741Z,97945.34
2019-01-21T01:45:09.104Z,97936.34
2019-01-21T01:50:15.978Z,97947.31
2019-01-21T01:55:19.261Z,97948.11
2019-01-21T02:00:22.541Z,97951.22
2019-01-21T02:05:25.743Z,97941.36
2019-01-21T02:10:29.066Z,97953.55
2019-01-21T02:15:32.269Z,97946.69
2019-01-21T02:20:35.538Z,97952.24
2019-01-21T02:25:46.332Z,97952.70
2019-01-21T02:31:04.201Z,97948.31
2019-01-21T02:36:38.109Z,97952.03
2019-01-21T02:41:46.202Z,97956.63
2019-01-21T02:46:59.998Z,97961.14
2019-01-21T02:52:17.185Z,97955.31
2019-01-21T02:57:33.545Z,97949.43
2019-01-21T03:02:47.891Z,97942.87
2019-01-21T03:10:03.109Z,97936.77
2019-01-21T03:17:28.122Z,97939.80
2019-01-21T03:24:43.255Z,97937.99
2019-01-21T03:30:00.348Z,97929.53
2019-01-21T03:35:16.099Z,97937.19
2019-01-21T03:40:29.282Z,97941.22
2019-01-21T03:47:47.619Z,97942.95
2019-01-21T03:53:02.607Z,97944.16
2019-01-21T03:58:15.606Z,97945.72
2019-01-21T04:03:54.353Z,97952.88
2019-01-21T04:09:09.966Z,97954.17
2019-01-21T04:14:33.185Z,97952.88
2019-01-21T04:21:46.342Z,97953.63
2019-01-21T04:26:57.868Z,97955.20
2019-01-21T04:32:13.690Z,97954.05
2019-01-21T04:38:07.052Z,97945.77
2019-01-21T04:43:55.126Z,97945.80
2019-01-21T04:51:12.285Z,97950.14
2019-01-21T04:58:33.369Z,97940.70
2019-01-21T05:03:51.606Z,97932.78
2019-01-21T05:09:05.982Z,97938.39
2019-01-21T05:15:30.929Z,97940.25
2019-01-21T05:20:52.989Z,97951.30
2019-01-21T05:26:04.671Z,97947.56
2019-01-21T05:32:21.572Z,97948.19
2019-01-21T05:37:43.177Z,97949.69
2019-01-21T05:42:58.305Z,97958.69
2019-01-21T05:48:21.119Z,97955.14
2019-01-21T05:53:44.409Z,97960.12
2019-01-21T05:59:01.262Z,97964.30
2019-01-21T06:04:16.558Z,97962.93
2019-01-21T06:11:34.486Z,97966.87
2019-01-21T06:16:47.162Z,97975.52
2019-01-21T06:22:03.442Z,97985.86
2019-01-21T06:27:19.328Z,97989.45
2019-01-21T06:33:09.370Z,97990.57
2019-01-21T06:40:27.199Z,97994.49
2019-01-21T06:45:41.343Z,98005.52
2019-01-21T06:53:00.604Z,98008.06
2019-01-21T06:58:13.413Z,98016.52
2019-01-21T07:03:33.208Z,98019.34
2019-01-21T07:08:46.105Z,98023.11
2019-01-21T07:14:18.289Z,98021.79
2019-01-21T07:19:47.126Z,98025.52
2019-01-21T07:25:45.810Z,98029.22
2019-01-21T07:31:06.066Z,98032.95
2019-01-21T07:36:19.608Z,98043.48
2019-01-21T07:41:32.081Z,98041.27
2019-01-21T07:46:52.102Z,98048.09
2019-01-21T07:52:12.154Z,98045.50
2019-01-21T07:57:29.210Z,98041.22
2019-01-21T08:02:51.082Z,98052.59
2019-01-21T08:08:07.156Z,98057.11
2019-01-21T08:15:26.591Z,98056.26
2019-01-21T08:20:46.918Z,98063.64
2019-01-21T08:26:01.742Z,98054.75
2019-01-21T08:31:15.529Z,98058.19
2019-01-21T08:37:36.550Z,98058.48
2019-01-21T08:47:00.886Z,98064.03
2019-01-21T08:52:28.658Z,98054.52
2019-01-21T08:57:46.425Z,98059.09
2019-01-21T09:03:02.682Z,98058.17
2019-01-21T09:09:26.222Z,98060.75
2019-01-21T09:14:42.073Z,98064.82
2019-01-21T09:19:59.123Z,98062.39
2019-01-21T09:25:24.089Z,98073.44
2019-01-21T09:31:00.917Z,98066.66
2019-01-21T09:37:29.766Z,98071.77
2019-01-21T09:42:46.138Z,98072.18
2019-01-21T09:47:48.268Z,98071.00
2019-01-21T09:52:51.543Z,98073.03
2019-01-21T09:58:03.470Z,98066.84
2019-01-21T10:03:06.925Z,98061.44
2019-01-21T10:09:20.425Z,98050.79
2019-01-21T10:14:34.993Z,98043.70
2019-01-21T10:19:50.764Z,98031.34
2019-01-21T10:25:16.329Z,98035.23
2019-01-21T10:30:34.552Z,98024.98
2019-01-21T10:35:52.323Z,98016.86
2019-01-21T10:41:00.458Z,98015.19
2019-01-21T10:48:17.929Z,98011.75
2019-01-21T10:55:36.678Z,97998.00
2019-01-21T11:02:54.745Z,97984.27
2019-01-21T11:08:09.696Z,97986.61
2019-01-21T11:13:23.341Z,97981.77
2019-01-21T11:20:38.653Z,97980.35
2019-01-21T11:27:53.050Z,97971.48
2019-01-21T11:33:09.317Z,97965.06
2019-01-21T11:38:29.871Z,97960.81
2019-01-21T11:43:47.295Z,97958.77
2019-01-21T11:49:32.218Z,97955.42
2019-01-21T11:54:56.650Z,97948.42
2019-01-21T12:00:13.551Z,97949.46
2019-01-21T12:06:00.259Z,97938.83
2019-01-21T12:11:13.745Z,97926.64
2019-01-21T12:16:35.713Z,97923.04
2019-01-21T12:23:52.067Z,97922.85
2019-01-21T12:30:08.689Z,97906.86
2019-01-21T12:35:52.129Z,97900.16
2019-01-21T12:41:08.109Z,97883.34
2019-01-21T12:46:37.050Z,97879.20
2019-01-21T12:51:49.297Z,97872.77
2019-01-21T12:57:06.676Z,97867.76
2019-01-21T13:02:20.645Z,97858.81
2019-01-21T13:07:37.130Z,97859.66
2019-01-21T13:12:59.205Z,97852.48
2019-01-21T13:18:21.815Z,97843.36
2019-01-21T13:23:40.910Z,97840.61
2019-01-21T13:28:54.604Z,97838.05
2019-01-21T13:34:08.673Z,97833.92
2019-01-21T13:39:31.216Z,97830.81
2019-01-21T13:46:09.249Z,97828.31
2019-01-21T13:51:31.163Z,97829.27
2019-01-21T13:56:46.156Z,97823.72
2019-01-21T14:01:56.560Z,97820.61
2019-01-21T14:07:22.516Z,97818.41
2019-01-21T14:12:35.418Z,97818.70
2019-01-21T14:17:54.897Z,97810.47
2019-01-21T14:25:09.143Z,97816.65
2019-01-21T14:30:32.967Z,97797.33
2019-01-21T14:35:47.266Z,97795.81
2019-01-21T14:41:00.930Z,97769.23
2019-01-21T14:48:19.502Z,97778.55
2019-01-21T14:53:55.514Z,97806.94
2019-01-21T14:59:19.217Z,97806.69
2019-01-21T15:05:07.513Z,97804.14
2019-01-21T15:10:29.277Z,97803.33
2019-01-21T15:15:37.452Z,97801.33
2019-01-21T15:20:57.839Z,97797.41
2019-01-21T15:26:10.030Z,97797.31
2019-01-21T15:31:24.402Z,97799.05
2019-01-21T15:36:42.659Z,97793.16
2019-01-21T15:42:01.791Z,97794.91
2019-01-21T15:47:22.819Z,97791.25
2019-01-21T15:52:39.783Z,97791.39
2019-01-21T15:59:55.489Z,97788.56
2019-01-21T16:05:15.493Z,97796.52
2019-01-21T16:10:29.379Z,97800.95
2019-01-21T16:17:51.130Z,97801.09
2019-01-21T16:23:07.332Z,97805.88
2019-01-21T16:28:34.158Z,97794.43
2019-01-21T16:34:09.036Z,97795.73
2019-01-21T16:39:22.653Z,97797.87
2019-01-21T16:44:25.970Z,97789.31
2019-01-21T16:49:29.350Z,97794.49
2019-01-21T16:54:32.666Z,97789.38
2019-01-21T16:59:36.074Z,97797.08
2019-01-21T17:04:39.377Z,97787.67
2019-01-21T17:09:43.694Z,97799.63
2019-01-21T17:14:47.075Z,97801.72
2019-01-21T17:19:51.274Z,97798.72
2019-01-21T17:24:54.602Z,97797.43
2019-01-21T17:29:58.041Z,97815.27
2019-01-21T17:35:02.328Z,97818.69
2019-01-21T17:40:06.900Z,97803.77
2019-01-21T17:45:13.001Z,97802.43
2019-01-21T17:50:17.181Z,97803.66
2019-01-21T17:55:20.536Z,97801.92
2019-01-21T18:00:23.999Z,97801.88
2019-01-21T18:05:27.356Z,97802.24
2019-01-21T18:10:31.465Z,97801.38
2019-01-21T18:15:34.245Z,97800.92
2019-01-21T18:20:40.393Z,97800.88
2019-01-21T18:25:43.790Z,97809.67
2019-01-21T18:30:47.273Z,97802.82
2019-01-21T18:35:51.322Z,97813.44
2019-01-21T18:40:54.626Z,97800.26
2019-01-21T18:45:58.043Z,97797.73
2019-01-21T18:51:02.165Z,97788.30
2019-01-21T18:56:05.577Z,97785.16
2019-01-21T19:01:08.885Z,97785.51
2019-01-21T19:06:12.214Z,97787.16
2019-01-21T19:11:15.574Z,97795.49
2019-01-21T19:16:19.001Z,97795.88
2019-01-21T19:21:22.382Z,97791.19
2019-01-21T19:26:26.483Z,97795.77
2019-01-21T19:31:29.831Z,97800.81
2019-01-21T19:36:34.018Z,97804.22
2019-01-21T19:41:37.384Z,97801.19
2019-01-21T19:46:44.242Z,97796.47
2019-01-21T19:51:46.189Z,97806.14
2019-01-21T19:56:49.502Z,97804.27
2019-01-21T20:01:52.959Z,97803.74
2019-01-21T20:06:56.290Z,97807.21
2019-01-21T20:11:59.604Z,97801.22
2019-01-21T20:17:03.524Z,97798.64
2019-01-21T20:22:08.018Z,97793.45
2019-01-21T20:27:10.187Z,97794.11
2019-01-21T20:32:13.576Z,97793.17
2019-01-21T20:37:17.038Z,97785.91
2019-01-21T20:42:20.426Z,97783.33
2019-01-21T20:47:23.959Z,97773.55
2019-01-21T20:52:27.263Z,97768.59
2019-01-21T20:57:31.116Z,97766.53
2019-01-21T21:02:34.557Z,97772.83
2019-01-21T21:07:38.081Z,97774.89
2019-01-21T21:12:41.583Z,97775.91
2019-01-21T21:17:45.078Z,97774.31
2019-01-21T21:22:48.492Z,97782.14
2019-01-21T21:27:51.872Z,97782.00
2019-01-21T21:32:55.412Z,97778.64
2019-01-21T21:37:58.943Z,97773.78
2019-01-21T21:43:02.294Z,97781.94
2019-01-21T21:48:05.674Z,97782.11
2019-01-21T21:53:09.001Z,97786.31
2019-01-21T21:58:12.289Z,97789.55
2019-01-21T22:03:15.599Z,97785.59
2019-01-21T22:08:18.914Z,97784.56
2019-01-21T22:13:22.105Z,97792.95
2019-01-21T22:18:25.348Z,97797.60
2019-01-21T22:23:28.741Z,97797.53
2019-01-21T22:28:31.954Z,97785.28
2019-01-21T22:33:35.166Z,97780.37
2019-01-21T22:38:38.378Z,97781.75
2019-01-21T22:43:41.610Z,97779.78
2019-01-21T22:48:44.858Z,97767.35
2019-01-21T22:53:48.073Z,97769.86
2019-01-21T22:58:51.318Z,97776.86
2019-01-21T23:03:54.548Z,97767.84
2019-01-21T23:08:57.830Z,97760.54
2019-01-21T23:14:01.025Z,97764.73
2019-01-21T23:19:04.320Z,97754.11
2019-01-21T23:24:07.515Z,97749.58
2019-01-21T23:29:10.709Z,97754.10
2019-01-21T23:34:13.945Z,97749.25
2019-01-21T23:39:17.161Z,97743.88
2019-01-21T23:44:20.379Z,97754.98
2019-01-21T23:49:23.825Z,97751.84
2019-01-21T23:54:27.073Z,97748.90
2019-01-21T23:59:30.288Z,97736.27
